sensor_id;sensor_type;location;lat;lon;timestamp;temperature;humidity
17948;DHT22;9099;47.958;11.366;2022-08-21T00:01:00;17.80;99.90
17948;DHT22;9099;47.958;11.366;2022-08-21T00:03:29;17.80;99.90
17948;DHT22;9099;47.958;11.366;2022-08-21T00:05:56;17.80;99.90
17948;DHT22;9099;47.958;11.366;2022-08-21T00:08:23;17.70;99.90
17948;DHT22;9099;47.958;11.366;2022-08-21T00:10:51;17.70;99.90
17948;DHT22;9099;47.958;11.366;2022-08-21T00:13:18;17.70;99.90
17948;DHT22;9099;47.958;11.366;2022-08-21T00:15:46;17.60;99.90
17948;DHT22;9099;47.958;11.366;2022-08-21T00:18:14;17.60;99.90
17948;DHT22;9099;47.958;11.366;2022-08-21T00:20:44;17.60;99.90
17948;DHT22;9099;47.958;11.366;2022-08-21T00:23:11;17.60;99.90
17948;DHT22;9099;47.958;11.366;2022-08-21T00:25:39;17.60;99.90
17948;DHT22;9099;47.958;11.366;2022-08-21T00:28:06;17.50;99.90
17948;DHT22;9099;47.958;11.366;2022-08-21T00:30:33;17.60;99.90
17948;DHT22;9099;47.958;11.366;2022-08-21T00:33:01;17.60;99.90
17948;DHT22;9099;47.958;11.366;2022-08-21T00:35:31;17.60;99.90
17948;DHT22;9099;47.958;11.366;2022-08-21T00:38:00;17.60;99.90
17948;DHT22;9099;47.958;11.366;2022-08-21T00:40:37;17.60;99.90
17948;DHT22;9099;47.958;11.366;2022-08-21T00:43:07;17.60;99.90
17948;DHT22;9099;47.958;11.366;2022-08-21T00:45:35;17.50;99.90
17948;DHT22;9099;47.958;11.366;2022-08-21T00:48:02;17.50;99.90
17948;DHT22;9099;47.958;11.366;2022-08-21T00:50:33;17.50;99.90
17948;DHT22;9099;47.958;11.366;2022-08-21T00:53:02;17.50;99.90
17948;DHT22;9099;47.958;11.366;2022-08-21T00:55:31;17.50;99.90
17948;DHT22;9099;47.958;11.366;2022-08-21T00:58:00;17.40;99.90
17948;DHT22;9099;47.958;11.366;2022-08-21T01:00:30;17.40;99.90
17948;DHT22;9099;47.958;11.366;2022-08-21T01:02:58;17.40;99.90
17948;DHT22;9099;47.958;11.366;2022-08-21T01:05:26;17.40;99.90
17948;DHT22;9099;47.958;11.366;2022-08-21T01:07:54;17.40;99.90
17948;DHT22;9099;47.958;11.366;2022-08-21T01:10:24;17.40;99.90
17948;DHT22;9099;47.958;11.366;2022-08-21T01:12:52;17.40;99.90
17948;DHT22;9099;47.958;11.366;2022-08-21T01:15:22;17.40;99.90
17948;DHT22;9099;47.958;11.366;2022-08-21T01:17:49;17.40;99.90
17948;DHT22;9099;47.958;11.366;2022-08-21T01:20:17;17.40;99.90
17948;DHT22;9099;47.958;11.366;2022-08-21T01:22:45;17.30;99.90
17948;DHT22;9099;47.958;11.366;2022-08-21T01:25:14;17.30;99.90
17948;DHT22;9099;47.958;11.366;2022-08-21T01:27:41;17.40;99.90
17948;DHT22;9099;47.958;11.366;2022-08-21T01:30:12;17.40;99.90
17948;DHT22;9099;47.958;11.366;2022-08-21T01:32:40;17.20;99.90
17948;DHT22;9099;47.958;11.366;2022-08-21T01:35:08;17.30;99.90
17948;DHT22;9099;47.958;11.366;2022-08-21T01:37:35;17.20;99.90
17948;DHT22;9099;47.958;11.366;2022-08-21T01:40:05;17.20;99.90
17948;DHT22;9099;47.958;11.366;2022-08-21T01:42:33;17.20;99.90
17948;DHT22;9099;47.958;11.366;2022-08-21T01:45:00;17.20;99.90
17948;DHT22;9099;47.958;11.366;2022-08-21T01:47:27;17.20;99.90
17948;DHT22;9099;47.958;11.366;2022-08-21T01:49:54;17.20;99.90
17948;DHT22;9099;47.958;11.366;2022-08-21T01:52:21;17.20;99.90
17948;DHT22;9099;47.958;11.366;2022-08-21T01:54:48;17.10;99.90
17948;DHT22;9099;47.958;11.366;2022-08-21T01:57:17;17.10;99.90
17948;DHT22;9099;47.958;11.366;2022-08-21T01:59:44;17.10;99.90
17948;DHT22;9099;47.958;11.366;2022-08-21T02:02:11;17.10;99.90
17948;DHT22;9099;47.958;11.366;2022-08-21T02:04:38;17.10;99.90
17948;DHT22;9099;47.958;11.366;2022-08-21T02:07:04;17.10;99.90
17948;DHT22;9099;47.958;11.366;2022-08-21T02:09:32;17.10;99.90
17948;DHT22;9099;47.958;11.366;2022-08-21T02:11:59;17.10;99.90
17948;DHT22;9099;47.958;11.366;2022-08-21T02:14:28;17.10;99.90
17948;DHT22;9099;47.958;11.366;2022-08-21T02:16:55;17.10;99.90
17948;DHT22;9099;47.958;11.366;2022-08-21T02:19:22;17.10;99.90
17948;DHT22;9099;47.958;11.366;2022-08-21T02:21:49;17.00;99.90
17948;DHT22;9099;47.958;11.366;2022-08-21T02:24:16;17.00;99.90
17948;DHT22;9099;47.958;11.366;2022-08-21T02:26:43;16.90;99.90
17948;DHT22;9099;47.958;11.366;2022-08-21T02:29:10;16.90;99.90
17948;DHT22;9099;47.958;11.366;2022-08-21T02:31:38;16.90;99.90
17948;DHT22;9099;47.958;11.366;2022-08-21T02:34:05;16.90;99.90
17948;DHT22;9099;47.958;11.366;2022-08-21T02:36:32;16.90;99.90
17948;DHT22;9099;47.958;11.366;2022-08-21T02:39:00;16.90;99.90
17948;DHT22;9099;47.958;11.366;2022-08-21T02:41:27;16.90;99.90
17948;DHT22;9099;47.958;11.366;2022-08-21T02:43:54;16.90;99.90
17948;DHT22;9099;47.958;11.366;2022-08-21T02:46:21;16.90;99.90
17948;DHT22;9099;47.958;11.366;2022-08-21T02:48:49;16.80;99.90
17948;DHT22;9099;47.958;11.366;2022-08-21T02:51:18;16.70;99.90
17948;DHT22;9099;47.958;11.366;2022-08-21T02:53:48;16.50;99.90
17948;DHT22;9099;47.958;11.366;2022-08-21T02:56:17;16.40;99.90
17948;DHT22;9099;47.958;11.366;2022-08-21T02:58:47;16.30;99.90
17948;DHT22;9099;47.958;11.366;2022-08-21T03:01:15;16.30;99.90
17948;DHT22;9099;47.958;11.366;2022-08-21T03:03:44;16.20;99.90
17948;DHT22;9099;47.958;11.366;2022-08-21T03:06:14;16.10;99.90
17948;DHT22;9099;47.958;11.366;2022-08-21T03:08:42;16.10;99.90
17948;DHT22;9099;47.958;11.366;2022-08-21T03:11:11;16.00;99.90
17948;DHT22;9099;47.958;11.366;2022-08-21T03:13:38;15.90;99.90
17948;DHT22;9099;47.958;11.366;2022-08-21T03:16:06;15.90;99.90
17948;DHT22;9099;47.958;11.366;2022-08-21T03:18:34;15.90;99.90
17948;DHT22;9099;47.958;11.366;2022-08-21T03:21:02;16.00;99.90
17948;DHT22;9099;47.958;11.366;2022-08-21T03:23:30;16.10;99.90
17948;DHT22;9099;47.958;11.366;2022-08-21T03:25:57;16.20;99.90
17948;DHT22;9099;47.958;11.366;2022-08-21T03:28:25;16.20;99.90
17948;DHT22;9099;47.958;11.366;2022-08-21T03:30:52;16.30;99.90
17948;DHT22;9099;47.958;11.366;2022-08-21T03:33:19;16.20;99.90
17948;DHT22;9099;47.958;11.366;2022-08-21T03:35:50;16.10;99.90
17948;DHT22;9099;47.958;11.366;2022-08-21T03:38:19;16.00;99.90
17948;DHT22;9099;47.958;11.366;2022-08-21T03:40:47;15.90;99.90
17948;DHT22;9099;47.958;11.366;2022-08-21T03:43:14;15.80;99.90
17948;DHT22;9099;47.958;11.366;2022-08-21T03:45:42;15.70;99.90
17948;DHT22;9099;47.958;11.366;2022-08-21T03:48:09;15.70;99.90
17948;DHT22;9099;47.958;11.366;2022-08-21T03:50:38;15.70;99.90
17948;DHT22;9099;47.958;11.366;2022-08-21T03:53:05;15.70;99.90
17948;DHT22;9099;47.958;11.366;2022-08-21T03:55:32;15.70;99.90
17948;DHT22;9099;47.958;11.366;2022-08-21T03:58:01;15.70;99.90
17948;DHT22;9099;47.958;11.366;2022-08-21T04:00:28;15.60;99.90
17948;DHT22;9099;47.958;11.366;2022-08-21T04:02:55;15.60;99.90
17948;DHT22;9099;47.958;11.366;2022-08-21T04:05:23;15.60;99.90
17948;DHT22;9099;47.958;11.366;2022-08-21T04:07:57;15.50;99.90
17948;DHT22;9099;47.958;11.366;2022-08-21T04:10:26;15.60;99.90
17948;DHT22;9099;47.958;11.366;2022-08-21T04:12:54;15.50;99.90
17948;DHT22;9099;47.958;11.366;2022-08-21T04:15:24;15.50;99.90
17948;DHT22;9099;47.958;11.366;2022-08-21T04:17:51;15.50;99.90
17948;DHT22;9099;47.958;11.366;2022-08-21T04:20:19;15.40;99.90
17948;DHT22;9099;47.958;11.366;2022-08-21T04:22:47;15.40;99.90
17948;DHT22;9099;47.958;11.366;2022-08-21T04:25:16;15.30;99.90
17948;DHT22;9099;47.958;11.366;2022-08-21T04:27:44;15.40;99.90
17948;DHT22;9099;47.958;11.366;2022-08-21T04:30:13;15.30;99.90
17948;DHT22;9099;47.958;11.366;2022-08-21T04:32:45;15.30;99.90
17948;DHT22;9099;47.958;11.366;2022-08-21T04:35:13;15.30;99.90
17948;DHT22;9099;47.958;11.366;2022-08-21T04:37:40;15.30;99.90
17948;DHT22;9099;47.958;11.366;2022-08-21T04:40:09;15.30;99.90
17948;DHT22;9099;47.958;11.366;2022-08-21T04:42:42;15.20;99.90
17948;DHT22;9099;47.958;11.366;2022-08-21T04:45:14;15.20;99.90
17948;DHT22;9099;47.958;11.366;2022-08-21T04:47:43;15.20;99.90
17948;DHT22;9099;47.958;11.366;2022-08-21T04:50:10;15.20;99.90
17948;DHT22;9099;47.958;11.366;2022-08-21T04:52:37;15.20;99.90
17948;DHT22;9099;47.958;11.366;2022-08-21T04:55:05;15.10;99.90
17948;DHT22;9099;47.958;11.366;2022-08-21T04:57:34;15.10;99.90
17948;DHT22;9099;47.958;11.366;2022-08-21T05:00:03;15.10;99.90
17948;DHT22;9099;47.958;11.366;2022-08-21T05:02:32;15.20;99.90
17948;DHT22;9099;47.958;11.366;2022-08-21T05:05:01;15.20;99.90
17948;DHT22;9099;47.958;11.366;2022-08-21T05:07:29;15.30;99.90
17948;DHT22;9099;47.958;11.366;2022-08-21T05:09:59;15.40;99.90
17948;DHT22;9099;47.958;11.366;2022-08-21T05:12:32;15.50;99.90
17948;DHT22;9099;47.958;11.366;2022-08-21T05:14:59;15.60;99.90
17948;DHT22;9099;47.958;11.366;2022-08-21T05:17:26;15.80;99.90
17948;DHT22;9099;47.958;11.366;2022-08-21T05:19:53;15.90;99.90
17948;DHT22;9099;47.958;11.366;2022-08-21T05:22:22;16.20;99.90
17948;DHT22;9099;47.958;11.366;2022-08-21T05:24:50;16.50;99.90
17948;DHT22;9099;47.958;11.366;2022-08-21T05:27:17;16.80;99.90
17948;DHT22;9099;47.958;11.366;2022-08-21T05:29:44;17.20;99.90
17948;DHT22;9099;47.958;11.366;2022-08-21T05:32:12;17.70;99.90
17948;DHT22;9099;47.958;11.366;2022-08-21T05:34:39;18.30;99.90
17948;DHT22;9099;47.958;11.366;2022-08-21T05:37:06;19.00;99.90
17948;DHT22;9099;47.958;11.366;2022-08-21T05:39:35;19.70;99.90
17948;DHT22;9099;47.958;11.366;2022-08-21T05:42:02;20.30;99.90
17948;DHT22;9099;47.958;11.366;2022-08-21T05:44:29;20.80;99.90
17948;DHT22;9099;47.958;11.366;2022-08-21T05:47:03;21.60;99.90
17948;DHT22;9099;47.958;11.366;2022-08-21T05:49:30;22.30;99.90
17948;DHT22;9099;47.958;11.366;2022-08-21T05:51:57;22.70;99.90
17948;DHT22;9099;47.958;11.366;2022-08-21T05:54:25;23.30;99.90
17948;DHT22;9099;47.958;11.366;2022-08-21T05:56:53;23.70;99.90
17948;DHT22;9099;47.958;11.366;2022-08-21T05:59:20;24.10;99.90
17948;DHT22;9099;47.958;11.366;2022-08-21T06:01:47;24.70;99.90
17948;DHT22;9099;47.958;11.366;2022-08-21T06:04:15;25.30;99.90
17948;DHT22;9099;47.958;11.366;2022-08-21T06:06:42;25.60;99.90
17948;DHT22;9099;47.958;11.366;2022-08-21T06:09:09;25.70;99.90
17948;DHT22;9099;47.958;11.366;2022-08-21T06:11:36;26.20;99.90
17948;DHT22;9099;47.958;11.366;2022-08-21T06:14:04;26.70;99.90
17948;DHT22;9099;47.958;11.366;2022-08-21T06:16:32;27.10;99.90
17948;DHT22;9099;47.958;11.366;2022-08-21T06:18:59;27.00;99.90
17948;DHT22;9099;47.958;11.366;2022-08-21T06:21:26;27.10;99.90
17948;DHT22;9099;47.958;11.366;2022-08-21T06:23:53;27.70;99.90
17948;DHT22;9099;47.958;11.366;2022-08-21T06:26:19;28.10;99.90
17948;DHT22;9099;47.958;11.366;2022-08-21T06:28:47;28.20;99.90
17948;DHT22;9099;47.958;11.366;2022-08-21T06:31:18;28.00;99.90
17948;DHT22;9099;47.958;11.366;2022-08-21T06:33:45;27.80;99.90
17948;DHT22;9099;47.958;11.366;2022-08-21T06:36:13;27.80;99.90
17948;DHT22;9099;47.958;11.366;2022-08-21T06:38:40;27.60;99.90
17948;DHT22;9099;47.958;11.366;2022-08-21T06:41:08;27.30;99.90
17948;DHT22;9099;47.958;11.366;2022-08-21T06:43:35;26.70;99.90
17948;DHT22;9099;47.958;11.366;2022-08-21T06:46:02;26.20;99.90
17948;DHT22;9099;47.958;11.366;2022-08-21T06:48:31;26.00;99.90
17948;DHT22;9099;47.958;11.366;2022-08-21T06:50:59;25.60;99.90
17948;DHT22;9099;47.958;11.366;2022-08-21T06:53:26;25.30;99.90
17948;DHT22;9099;47.958;11.366;2022-08-21T06:55:53;24.70;99.90
17948;DHT22;9099;47.958;11.366;2022-08-21T06:58:20;24.20;99.90
17948;DHT22;9099;47.958;11.366;2022-08-21T07:00:49;24.00;99.90
17948;DHT22;9099;47.958;11.366;2022-08-21T07:03:20;23.60;99.90
17948;DHT22;9099;47.958;11.366;2022-08-21T07:05:49;23.30;99.90
17948;DHT22;9099;47.958;11.366;2022-08-21T07:08:16;23.30;99.90
17948;DHT22;9099;47.958;11.366;2022-08-21T07:10:44;23.20;99.90
17948;DHT22;9099;47.958;11.366;2022-08-21T07:13:11;23.10;99.90
17948;DHT22;9099;47.958;11.366;2022-08-21T07:15:38;23.30;99.90
17948;DHT22;9099;47.958;11.366;2022-08-21T07:18:05;23.40;99.90
17948;DHT22;9099;47.958;11.366;2022-08-21T07:20:33;23.40;99.90
17948;DHT22;9099;47.958;11.366;2022-08-21T07:23:05;23.30;99.90
17948;DHT22;9099;47.958;11.366;2022-08-21T07:25:32;23.20;99.90
17948;DHT22;9099;47.958;11.366;2022-08-21T07:27:59;23.30;99.90
17948;DHT22;9099;47.958;11.366;2022-08-21T07:30:27;23.00;99.90
17948;DHT22;9099;47.958;11.366;2022-08-21T07:32:54;22.80;99.90
17948;DHT22;9099;47.958;11.366;2022-08-21T07:35:21;22.70;99.90
17948;DHT22;9099;47.958;11.366;2022-08-21T07:37:49;22.70;99.90
17948;DHT22;9099;47.958;11.366;2022-08-21T07:40:18;22.90;99.90
17948;DHT22;9099;47.958;11.366;2022-08-21T07:42:47;23.00;99.90
17948;DHT22;9099;47.958;11.366;2022-08-21T07:45:15;23.00;99.90
17948;DHT22;9099;47.958;11.366;2022-08-21T07:47:43;23.20;99.90
17948;DHT22;9099;47.958;11.366;2022-08-21T07:50:10;23.50;99.90
17948;DHT22;9099;47.958;11.366;2022-08-21T07:52:38;23.60;99.90
17948;DHT22;9099;47.958;11.366;2022-08-21T07:55:07;23.70;99.90
17948;DHT22;9099;47.958;11.366;2022-08-21T07:57:35;23.80;99.90
17948;DHT22;9099;47.958;11.366;2022-08-21T08:00:03;24.00;99.90
17948;DHT22;9099;47.958;11.366;2022-08-21T08:02:30;24.00;99.90
17948;DHT22;9099;47.958;11.366;2022-08-21T08:04:59;24.60;99.90
17948;DHT22;9099;47.958;11.366;2022-08-21T08:07:27;25.10;99.90
17948;DHT22;9099;47.958;11.366;2022-08-21T08:09:54;25.50;99.90
17948;DHT22;9099;47.958;11.366;2022-08-21T08:12:21;25.80;99.90
17948;DHT22;9099;47.958;11.366;2022-08-21T08:14:50;26.00;99.90
17948;DHT22;9099;47.958;11.366;2022-08-21T08:17:17;26.50;99.90
17948;DHT22;9099;47.958;11.366;2022-08-21T08:19:47;26.70;99.90
17948;DHT22;9099;47.958;11.366;2022-08-21T08:22:15;27.40;99.90
17948;DHT22;9099;47.958;11.366;2022-08-21T08:24:44;27.90;99.90
17948;DHT22;9099;47.958;11.366;2022-08-21T08:27:11;28.30;99.90
17948;DHT22;9099;47.958;11.366;2022-08-21T08:29:39;28.60;99.90
17948;DHT22;9099;47.958;11.366;2022-08-21T08:32:07;28.80;99.90
17948;DHT22;9099;47.958;11.366;2022-08-21T08:34:34;29.30;99.90
17948;DHT22;9099;47.958;11.366;2022-08-21T08:37:02;29.90;99.90
17948;DHT22;9099;47.958;11.366;2022-08-21T08:39:29;30.40;99.90
17948;DHT22;9099;47.958;11.366;2022-08-21T08:42:01;30.70;99.90
17948;DHT22;9099;47.958;11.366;2022-08-21T08:44:31;30.40;99.90
17948;DHT22;9099;47.958;11.366;2022-08-21T08:47:01;31.00;99.90
17948;DHT22;9099;47.958;11.366;2022-08-21T08:49:36;31.60;99.90
17948;DHT22;9099;47.958;11.366;2022-08-21T08:52:10;32.10;99.90
17948;DHT22;9099;47.958;11.366;2022-08-21T08:54:42;32.40;99.90
17948;DHT22;9099;47.958;11.366;2022-08-21T08:57:15;32.70;99.90
17948;DHT22;9099;47.958;11.366;2022-08-21T08:59:44;33.10;99.90
17948;DHT22;9099;47.958;11.366;2022-08-21T09:02:14;33.30;99.90
17948;DHT22;9099;47.958;11.366;2022-08-21T09:04:44;33.30;99.90
17948;DHT22;9099;47.958;11.366;2022-08-21T09:07:18;33.10;99.90
17948;DHT22;9099;47.958;11.366;2022-08-21T09:09:55;33.40;99.90
17948;DHT22;9099;47.958;11.366;2022-08-21T09:12:33;33.50;99.90
17948;DHT22;9099;47.958;11.366;2022-08-21T09:15:09;33.90;98.70
17948;DHT22;9099;47.958;11.366;2022-08-21T09:20:34;34.20;98.30
17948;DHT22;9099;47.958;11.366;2022-08-21T09:23:15;34.30;98.40
17948;DHT22;9099;47.958;11.366;2022-08-21T09:25:53;34.30;99.00
17948;DHT22;9099;47.958;11.366;2022-08-21T09:28:22;34.50;98.90
17948;DHT22;9099;47.958;11.366;2022-08-21T09:30:50;34.50;95.30
17948;DHT22;9099;47.958;11.366;2022-08-21T09:33:21;34.30;97.60
17948;DHT22;9099;47.958;11.366;2022-08-21T09:35:51;34.50;98.60
17948;DHT22;9099;47.958;11.366;2022-08-21T09:38:28;34.60;95.40
17948;DHT22;9099;47.958;11.366;2022-08-21T09:40:58;34.40;96.80
17948;DHT22;9099;47.958;11.366;2022-08-21T09:43:26;34.30;96.60
17948;DHT22;9099;47.958;11.366;2022-08-21T09:46:08;34.00;95.50
17948;DHT22;9099;47.958;11.366;2022-08-21T09:48:49;34.00;95.00
17948;DHT22;9099;47.958;11.366;2022-08-21T09:51:19;34.30;97.60
17948;DHT22;9099;47.958;11.366;2022-08-21T09:53:51;34.20;96.10
17948;DHT22;9099;47.958;11.366;2022-08-21T09:56:24;34.10;96.70
17948;DHT22;9099;47.958;11.366;2022-08-21T09:59:24;33.80;95.60
17948;DHT22;9099;47.958;11.366;2022-08-21T10:01:53;34.40;96.70
17948;DHT22;9099;47.958;11.366;2022-08-21T10:04:23;34.50;97.10
17948;DHT22;9099;47.958;11.366;2022-08-21T10:06:51;34.60;96.30
17948;DHT22;9099;47.958;11.366;2022-08-21T10:09:20;34.90;95.30
17948;DHT22;9099;47.958;11.366;2022-08-21T10:11:54;35.00;96.50
17948;DHT22;9099;47.958;11.366;2022-08-21T10:14:40;34.90;94.00
17948;DHT22;9099;47.958;11.366;2022-08-21T10:17:21;34.70;94.20
17948;DHT22;9099;47.958;11.366;2022-08-21T10:19:55;34.90;94.90
17948;DHT22;9099;47.958;11.366;2022-08-21T10:22:37;34.90;95.90
17948;DHT22;9099;47.958;11.366;2022-08-21T10:25:13;34.90;96.20
17948;DHT22;9099;47.958;11.366;2022-08-21T10:27:50;35.00;96.40
17948;DHT22;9099;47.958;11.366;2022-08-21T10:30:22;34.80;95.10
17948;DHT22;9099;47.958;11.366;2022-08-21T10:33:01;34.80;94.80
17948;DHT22;9099;47.958;11.366;2022-08-21T10:35:34;34.30;95.50
17948;DHT22;9099;47.958;11.366;2022-08-21T10:38:34;33.40;94.80
17948;DHT22;9099;47.958;11.366;2022-08-21T10:41:13;32.40;95.60
17948;DHT22;9099;47.958;11.366;2022-08-21T10:43:50;31.10;96.70
17948;DHT22;9099;47.958;11.366;2022-08-21T10:46:37;30.00;98.50
17948;DHT22;9099;47.958;11.366;2022-08-21T10:49:13;29.40;98.00
17948;DHT22;9099;47.958;11.366;2022-08-21T10:51:49;29.00;98.50
17948;DHT22;9099;47.958;11.366;2022-08-21T10:54:32;28.60;98.70
17948;DHT22;9099;47.958;11.366;2022-08-21T10:57:05;28.20;99.90
17948;DHT22;9099;47.958;11.366;2022-08-21T10:59:38;27.80;99.90
17948;DHT22;9099;47.958;11.366;2022-08-21T11:02:13;28.10;99.90
17948;DHT22;9099;47.958;11.366;2022-08-21T11:04:48;29.10;99.90
17948;DHT22;9099;47.958;11.366;2022-08-21T11:07:21;29.60;99.90
17948;DHT22;9099;47.958;11.366;2022-08-21T11:09:51;29.60;99.90
17948;DHT22;9099;47.958;11.366;2022-08-21T11:12:25;29.40;99.90
17948;DHT22;9099;47.958;11.366;2022-08-21T11:14:58;29.00;99.90
17948;DHT22;9099;47.958;11.366;2022-08-21T11:17:31;28.40;99.90
17948;DHT22;9099;47.958;11.366;2022-08-21T11:20:03;28.30;99.90
17948;DHT22;9099;47.958;11.366;2022-08-21T11:22:35;28.20;99.90
17948;DHT22;9099;47.958;11.366;2022-08-21T11:25:09;28.20;99.90
17948;DHT22;9099;47.958;11.366;2022-08-21T11:27:41;28.20;99.90
17948;DHT22;9099;47.958;11.366;2022-08-21T11:30:11;28.80;99.90
17948;DHT22;9099;47.958;11.366;2022-08-21T11:33:00;29.80;99.90
17948;DHT22;9099;47.958;11.366;2022-08-21T11:35:34;30.40;99.90
17948;DHT22;9099;47.958;11.366;2022-08-21T11:38:16;30.70;98.00
17948;DHT22;9099;47.958;11.366;2022-08-21T11:40:58;31.10;99.90
17948;DHT22;9099;47.958;11.366;2022-08-21T11:43:36;31.40;98.80
17948;DHT22;9099;47.958;11.366;2022-08-21T11:46:14;31.60;99.70
17948;DHT22;9099;47.958;11.366;2022-08-21T11:48:53;31.30;99.90
17948;DHT22;9099;47.958;11.366;2022-08-21T11:51:32;31.70;99.90
17948;DHT22;9099;47.958;11.366;2022-08-21T11:54:05;32.10;99.90
17948;DHT22;9099;47.958;11.366;2022-08-21T11:56:39;32.20;98.30
17948;DHT22;9099;47.958;11.366;2022-08-21T11:59:11;32.10;95.30
17948;DHT22;9099;47.958;11.366;2022-08-21T12:01:45;32.10;97.20
17948;DHT22;9099;47.958;11.366;2022-08-21T12:04:21;32.60;97.20
17948;DHT22;9099;47.958;11.366;2022-08-21T12:06:49;32.20;95.90
17948;DHT22;9099;47.958;11.366;2022-08-21T12:09:33;32.00;98.50
17948;DHT22;9099;47.958;11.366;2022-08-21T12:12:10;32.20;95.70
17948;DHT22;9099;47.958;11.366;2022-08-21T12:14:40;32.30;97.00
17948;DHT22;9099;47.958;11.366;2022-08-21T12:17:15;32.60;94.70
17948;DHT22;9099;47.958;11.366;2022-08-21T12:19:43;32.70;95.80
17948;DHT22;9099;47.958;11.366;2022-08-21T12:22:13;32.30;95.40
17948;DHT22;9099;47.958;11.366;2022-08-21T12:24:42;32.60;94.30
17948;DHT22;9099;47.958;11.366;2022-08-21T12:27:27;32.70;92.70
17948;DHT22;9099;47.958;11.366;2022-08-21T12:29:58;32.60;95.10
17948;DHT22;9099;47.958;11.366;2022-08-21T12:32:28;32.80;94.90
17948;DHT22;9099;47.958;11.366;2022-08-21T12:35:07;32.60;92.90
17948;DHT22;9099;47.958;11.366;2022-08-21T12:37:40;32.40;91.50
17948;DHT22;9099;47.958;11.366;2022-08-21T12:40:13;32.30;91.80
17948;DHT22;9099;47.958;11.366;2022-08-21T12:42:49;32.00;92.80
17948;DHT22;9099;47.958;11.366;2022-08-21T12:45:19;32.10;94.30
17948;DHT22;9099;47.958;11.366;2022-08-21T12:47:53;31.90;94.70
17948;DHT22;9099;47.958;11.366;2022-08-21T12:50:29;32.20;92.70
17948;DHT22;9099;47.958;11.366;2022-08-21T12:53:04;32.20;93.20
17948;DHT22;9099;47.958;11.366;2022-08-21T12:55:35;32.30;92.10
17948;DHT22;9099;47.958;11.366;2022-08-21T12:58:17;32.30;92.50
17948;DHT22;9099;47.958;11.366;2022-08-21T13:00:49;32.20;96.20
17948;DHT22;9099;47.958;11.366;2022-08-21T13:03:17;31.90;96.30
17948;DHT22;9099;47.958;11.366;2022-08-21T13:05:44;31.80;96.10
17948;DHT22;9099;47.958;11.366;2022-08-21T13:08:12;31.80;96.80
17948;DHT22;9099;47.958;11.366;2022-08-21T13:10:41;31.90;97.60
17948;DHT22;9099;47.958;11.366;2022-08-21T13:13:13;31.70;96.90
17948;DHT22;9099;47.958;11.366;2022-08-21T13:15:43;32.10;96.30
17948;DHT22;9099;47.958;11.366;2022-08-21T13:18:20;32.60;94.40
17948;DHT22;9099;47.958;11.366;2022-08-21T13:20:48;32.60;94.20
17948;DHT22;9099;47.958;11.366;2022-08-21T13:23:23;32.30;97.10
17948;DHT22;9099;47.958;11.366;2022-08-21T13:25:50;32.40;95.70
17948;DHT22;9099;47.958;11.366;2022-08-21T13:28:19;32.40;96.50
17948;DHT22;9099;47.958;11.366;2022-08-21T13:30:47;32.60;95.40
17948;DHT22;9099;47.958;11.366;2022-08-21T13:33:17;32.70;95.90
17948;DHT22;9099;47.958;11.366;2022-08-21T13:35:50;32.90;94.10
17948;DHT22;9099;47.958;11.366;2022-08-21T13:38:18;33.00;94.10
17948;DHT22;9099;47.958;11.366;2022-08-21T13:40:49;33.20;95.50
17948;DHT22;9099;47.958;11.366;2022-08-21T13:43:22;32.90;94.80
17948;DHT22;9099;47.958;11.366;2022-08-21T13:45:53;32.70;93.60
17948;DHT22;9099;47.958;11.366;2022-08-21T13:48:23;32.50;94.60
17948;DHT22;9099;47.958;11.366;2022-08-21T13:50:52;32.50;95.00
17948;DHT22;9099;47.958;11.366;2022-08-21T13:53:23;32.40;95.10
17948;DHT22;9099;47.958;11.366;2022-08-21T13:55:55;32.30;94.70
17948;DHT22;9099;47.958;11.366;2022-08-21T13:58:28;32.40;95.60
17948;DHT22;9099;47.958;11.366;2022-08-21T14:00:56;32.30;95.10
17948;DHT22;9099;47.958;11.366;2022-08-21T14:03:33;32.00;95.10
17948;DHT22;9099;47.958;11.366;2022-08-21T14:06:02;32.00;96.20
17948;DHT22;9099;47.958;11.366;2022-08-21T14:08:32;32.10;95.80
17948;DHT22;9099;47.958;11.366;2022-08-21T14:11:02;31.90;95.80
17948;DHT22;9099;47.958;11.366;2022-08-21T14:13:38;31.80;95.90
17948;DHT22;9099;47.958;11.366;2022-08-21T14:16:13;32.10;96.20
17948;DHT22;9099;47.958;11.366;2022-08-21T14:18:46;32.10;95.60
17948;DHT22;9099;47.958;11.366;2022-08-21T14:21:13;32.00;94.60
17948;DHT22;9099;47.958;11.366;2022-08-21T14:23:40;32.10;94.80
17948;DHT22;9099;47.958;11.366;2022-08-21T14:26:09;32.00;94.40
17948;DHT22;9099;47.958;11.366;2022-08-21T14:28:40;31.80;95.00
17948;DHT22;9099;47.958;11.366;2022-08-21T14:31:13;31.50;94.00
17948;DHT22;9099;47.958;11.366;2022-08-21T14:33:41;31.10;94.20
17948;DHT22;9099;47.958;11.366;2022-08-21T14:36:08;31.20;95.60
17948;DHT22;9099;47.958;11.366;2022-08-21T14:38:37;31.30;94.40
17948;DHT22;9099;47.958;11.366;2022-08-21T14:41:11;31.20;94.90
17948;DHT22;9099;47.958;11.366;2022-08-21T14:43:43;31.20;93.70
17948;DHT22;9099;47.958;11.366;2022-08-21T14:46:11;31.20;93.40
17948;DHT22;9099;47.958;11.366;2022-08-21T14:48:39;31.10;94.40
17948;DHT22;9099;47.958;11.366;2022-08-21T14:51:06;31.00;96.50
17948;DHT22;9099;47.958;11.366;2022-08-21T14:53:33;30.90;94.70
17948;DHT22;9099;47.958;11.366;2022-08-21T14:56:00;30.80;94.10
17948;DHT22;9099;47.958;11.366;2022-08-21T14:58:36;30.70;93.70
17948;DHT22;9099;47.958;11.366;2022-08-21T15:01:06;30.80;94.90
17948;DHT22;9099;47.958;11.366;2022-08-21T15:03:34;30.50;95.50
17948;DHT22;9099;47.958;11.366;2022-08-21T15:06:02;30.40;94.10
17948;DHT22;9099;47.958;11.366;2022-08-21T15:08:29;30.30;95.50
17948;DHT22;9099;47.958;11.366;2022-08-21T15:10:59;30.30;95.30
17948;DHT22;9099;47.958;11.366;2022-08-21T15:13:26;30.40;96.00
17948;DHT22;9099;47.958;11.366;2022-08-21T15:15:53;30.20;96.30
17948;DHT22;9099;47.958;11.366;2022-08-21T15:18:28;29.90;95.60
17948;DHT22;9099;47.958;11.366;2022-08-21T15:20:55;29.70;95.90
17948;DHT22;9099;47.958;11.366;2022-08-21T15:23:23;29.80;96.90
17948;DHT22;9099;47.958;11.366;2022-08-21T15:25:50;29.60;96.60
17948;DHT22;9099;47.958;11.366;2022-08-21T15:28:19;29.70;97.10
17948;DHT22;9099;47.958;11.366;2022-08-21T15:30:49;29.80;96.90
17948;DHT22;9099;47.958;11.366;2022-08-21T15:33:16;29.80;96.20
17948;DHT22;9099;47.958;11.366;2022-08-21T15:35:45;29.60;96.50
17948;DHT22;9099;47.958;11.366;2022-08-21T15:38:13;29.70;96.60
17948;DHT22;9099;47.958;11.366;2022-08-21T15:40:41;29.60;95.80
17948;DHT22;9099;47.958;11.366;2022-08-21T15:43:16;29.30;96.30
17948;DHT22;9099;47.958;11.366;2022-08-21T15:45:45;29.10;96.90
17948;DHT22;9099;47.958;11.366;2022-08-21T15:48:12;29.20;95.60
17948;DHT22;9099;47.958;11.366;2022-08-21T15:50:39;28.90;96.10